createdAt,value
2018-08-27T00:00:29.122Z,23.84
2018-08-27T00:02:55.488Z,23.86
2018-08-27T00:05:21.804Z,23.84
2018-08-27T00:07:48.139Z,23.85
2018-08-27T00:10:14.474Z,23.83
2018-08-27T00:12:40.792Z,23.82
2018-08-27T00:15:07.162Z,23.80
2018-08-27T00:17:33.505Z,23.79
2018-08-27T00:19:59.897Z,23.80
2018-08-27T00:22:26.351Z,23.82
2018-08-27T00:24:52.691Z,23.82
2018-08-27T00:27:19.081Z,23.80
2018-08-27T00:29:45.412Z,23.85
2018-08-27T00:32:11.820Z,23.82
2018-08-27T00:34:38.169Z,23.81
2018-08-27T00:37:04.566Z,23.81
2018-08-27T00:39:30.913Z,23.72
2018-08-27T00:41:57.279Z,23.75
2018-08-27T00:44:23.652Z,23.80
2018-08-27T00:46:49.975Z,23.77
2018-08-27T00:49:16.355Z,23.79
2018-08-27T00:51:42.673Z,23.75
2018-08-27T00:54:09.016Z,23.73
2018-08-27T00:56:35.415Z,23.71
2018-08-27T00:59:01.805Z,23.70
2018-08-27T01:01:28.129Z,23.79
2018-08-27T01:03:54.525Z,23.80
2018-08-27T01:06:20.857Z,23.73
2018-08-27T01:08:47.197Z,23.60
2018-08-27T01:11:13.691Z,23.55
2018-08-27T01:13:40.064Z,23.56
2018-08-27T01:16:06.411Z,23.52
2018-08-27T01:18:32.751Z,23.51
2018-08-27T01:20:59.074Z,23.51
2018-08-27T01:23:25.477Z,23.45
2018-08-27T01:25:51.918Z,23.39
2018-08-27T01:28:18.255Z,23.42
2018-08-27T01:30:44.607Z,23.41
2018-08-27T01:33:11.776Z,23.36
2018-08-27T01:35:38.173Z,23.29
2018-08-27T01:38:04.561Z,23.29
2018-08-27T01:40:30.897Z,23.31
2018-08-27T01:42:57.250Z,23.30
2018-08-27T01:45:23.593Z,23.29
2018-08-27T01:47:49.926Z,23.29
2018-08-27T01:50:16.354Z,23.28
2018-08-27T01:52:42.723Z,23.26
2018-08-27T01:55:09.112Z,23.25
2018-08-27T01:57:35.442Z,23.28
2018-08-27T02:00:01.805Z,23.25
2018-08-27T02:02:28.204Z,23.29
2018-08-27T02:04:54.570Z,23.26
2018-08-27T02:07:20.895Z,23.25
2018-08-27T02:09:47.265Z,23.20
2018-08-27T02:12:13.603Z,23.22
2018-08-27T02:14:39.994Z,23.25
2018-08-27T02:17:06.322Z,23.23
2018-08-27T02:19:32.651Z,23.17
2018-08-27T02:21:58.984Z,23.20
2018-08-27T02:24:25.336Z,23.20
2018-08-27T02:26:51.754Z,23.18
2018-08-27T02:29:18.263Z,23.21
2018-08-27T02:31:44.695Z,23.16
2018-08-27T02:34:11.035Z,23.21
2018-08-27T02:36:37.403Z,23.18
2018-08-27T02:39:03.732Z,23.18
2018-08-27T02:41:30.102Z,23.16
2018-08-27T02:43:56.440Z,23.13
2018-08-27T02:46:22.932Z,23.12
2018-08-27T02:48:49.262Z,23.14
2018-08-27T02:51:15.634Z,23.13
2018-08-27T02:53:41.993Z,23.13
2018-08-27T02:56:08.383Z,23.09
2018-08-27T02:58:34.714Z,23.09
2018-08-27T03:01:01.044Z,23.10
2018-08-27T03:03:27.411Z,23.09
2018-08-27T03:05:53.730Z,23.09
2018-08-27T03:08:20.108Z,23.14
2018-08-27T03:10:46.463Z,23.13
2018-08-27T03:13:12.836Z,23.12
2018-08-27T03:15:39.167Z,23.10
2018-08-27T03:18:05.491Z,23.10
2018-08-27T03:20:31.852Z,23.13
2018-08-27T03:22:58.177Z,23.20
2018-08-27T03:25:24.550Z,23.14
2018-08-27T03:27:50.886Z,23.20
2018-08-27T03:30:17.211Z,23.23
2018-08-27T03:32:43.542Z,23.26
2018-08-27T03:35:09.874Z,23.27
2018-08-27T03:37:36.264Z,23.31
2018-08-27T03:40:02.631Z,23.34
2018-08-27T03:42:29.005Z,23.28
2018-08-27T03:44:55.323Z,23.30
2018-08-27T03:47:21.737Z,23.30
2018-08-27T03:49:48.129Z,23.30
2018-08-27T03:52:14.824Z,23.28
2018-08-27T03:54:41.205Z,23.30
2018-08-27T03:57:07.596Z,23.34
2018-08-27T03:59:33.936Z,23.34
2018-08-27T04:02:00.258Z,23.32
2018-08-27T04:04:26.597Z,23.35
2018-08-27T04:06:52.980Z,23.35
2018-08-27T04:09:19.337Z,23.34
2018-08-27T04:11:45.742Z,23.32
2018-08-27T04:14:12.072Z,23.32
2018-08-27T04:16:38.401Z,23.37
2018-08-27T04:19:04.743Z,23.34
2018-08-27T04:21:31.111Z,23.39
2018-08-27T04:23:57.447Z,23.37
2018-08-27T04:26:23.854Z,23.38
2018-08-27T04:28:50.344Z,23.39
2018-08-27T04:31:16.624Z,23.37
2018-08-27T04:33:42.998Z,23.35
2018-08-27T04:36:09.361Z,23.37
2018-08-27T04:38:35.728Z,23.37
2018-08-27T04:41:02.054Z,23.39
2018-08-27T04:43:28.420Z,23.38
2018-08-27T04:45:54.778Z,23.42
2018-08-27T04:48:21.145Z,23.39
2018-08-27T04:50:47.563Z,23.40
2018-08-27T04:53:13.880Z,23.41
2018-08-27T04:55:40.239Z,23.43
2018-08-27T04:58:06.582Z,23.44
2018-08-27T05:00:32.963Z,23.46
2018-08-27T05:02:59.367Z,23.43
2018-08-27T05:05:25.722Z,23.45
2018-08-27T05:07:52.067Z,23.46
2018-08-27T05:10:18.393Z,23.47
2018-08-27T05:12:44.814Z,23.51
2018-08-27T05:15:11.454Z,23.46
2018-08-27T05:17:37.807Z,23.47
2018-08-27T05:20:04.172Z,23.50
2018-08-27T05:22:30.498Z,23.50
2018-08-27T05:24:56.875Z,23.49
2018-08-27T05:27:23.216Z,23.51
2018-08-27T05:29:49.568Z,23.53
2018-08-27T05:32:15.911Z,23.54
2018-08-27T05:34:42.255Z,23.56
2018-08-27T05:37:08.700Z,23.54
2018-08-27T05:39:35.037Z,23.56
2018-08-27T05:42:01.399Z,23.56
2018-08-27T05:44:27.831Z,23.61
2018-08-27T05:46:54.166Z,23.61
2018-08-27T05:49:20.506Z,23.62
2018-08-27T05:51:46.843Z,23.66
2018-08-27T05:54:13.227Z,23.66
2018-08-27T05:56:39.568Z,23.67
2018-08-27T05:59:05.932Z,23.70
2018-08-27T06:01:32.373Z,23.72
2018-08-27T06:03:58.721Z,23.80
2018-08-27T06:06:25.059Z,23.86
2018-08-27T06:08:51.382Z,23.88
2018-08-27T06:11:17.806Z,23.85
2018-08-27T06:13:44.101Z,23.96
2018-08-27T06:16:10.531Z,23.99
2018-08-27T06:18:36.818Z,24.06
2018-08-27T06:21:03.196Z,24.10
2018-08-27T06:23:29.628Z,24.14
2018-08-27T06:25:55.958Z,24.15
2018-08-27T06:28:22.334Z,24.16
2018-08-27T06:30:48.825Z,24.19
2018-08-27T06:33:15.358Z,24.25
2018-08-27T06:35:41.859Z,24.27
2018-08-27T06:38:08.317Z,24.28
2018-08-27T06:40:34.714Z,24.31
2018-08-27T06:43:01.050Z,24.33
2018-08-27T06:45:27.420Z,24.38
2018-08-27T06:47:53.801Z,24.39
2018-08-27T06:50:20.174Z,24.42
2018-08-27T06:52:46.891Z,24.42
2018-08-27T06:55:13.245Z,24.47
2018-08-27T06:57:39.796Z,24.48
2018-08-27T07:00:06.533Z,24.49
2018-08-27T07:02:33.649Z,24.53
2018-08-27T07:05:00.018Z,24.59
2018-08-27T07:07:26.375Z,24.57
2018-08-27T07:09:52.775Z,24.60
2018-08-27T07:12:19.186Z,24.64
2018-08-27T07:14:45.528Z,24.61
2018-08-27T07:17:11.866Z,24.68
2018-08-27T07:19:38.402Z,24.73
2018-08-27T07:22:04.768Z,24.73
2018-08-27T07:24:31.267Z,24.78
2018-08-27T07:26:57.614Z,24.82
2018-08-27T07:29:24.000Z,24.87
2018-08-27T07:31:50.328Z,24.89
2018-08-27T07:34:16.725Z,24.88
2018-08-27T07:36:43.224Z,24.91
2018-08-27T07:39:09.590Z,24.91
2018-08-27T07:41:35.915Z,24.98
2018-08-27T07:44:02.256Z,25.00
2018-08-27T07:46:28.584Z,24.99
2018-08-27T07:48:55.009Z,25.06
2018-08-27T07:51:21.392Z,25.07
2018-08-27T07:53:47.703Z,25.07
2018-08-27T07:56:14.111Z,25.09
2018-08-27T07:58:40.481Z,25.15
2018-08-27T08:01:06.832Z,25.14
2018-08-27T08:03:33.159Z,25.16
2018-08-27T08:05:59.495Z,25.17
2018-08-27T08:08:25.893Z,25.20
2018-08-27T08:10:52.249Z,25.22
2018-08-27T08:13:18.590Z,25.24
2018-08-27T08:15:45.028Z,25.30
2018-08-27T08:18:11.403Z,25.29
2018-08-27T08:20:37.748Z,25.32
2018-08-27T08:23:04.109Z,25.36
2018-08-27T08:25:30.444Z,25.39
2018-08-27T08:27:56.814Z,25.40
2018-08-27T08:30:23.170Z,25.44
2018-08-27T08:32:49.508Z,25.45
2018-08-27T08:35:15.865Z,25.46
2018-08-27T08:37:42.305Z,25.48
2018-08-27T08:40:08.690Z,25.42
2018-08-27T08:42:34.990Z,25.50
2018-08-27T08:45:01.359Z,25.49
2018-08-27T08:47:27.720Z,25.47
2018-08-27T08:49:54.124Z,25.47
2018-08-27T08:52:20.555Z,25.47
2018-08-27T08:54:46.904Z,25.48
2018-08-27T08:57:13.241Z,25.49
2018-08-27T08:59:39.680Z,25.47
2018-08-27T09:02:06.061Z,25.42
2018-08-27T09:04:32.398Z,25.37
2018-08-27T09:06:58.748Z,25.40
2018-08-27T09:09:25.089Z,25.42
2018-08-27T09:11:51.473Z,25.43
2018-08-27T09:14:17.798Z,25.43
2018-08-27T09:16:44.258Z,25.38
2018-08-27T09:19:10.567Z,25.42
2018-08-27T09:21:36.932Z,25.42
2018-08-27T09:24:03.269Z,25.37
2018-08-27T09:26:29.665Z,25.37
2018-08-27T09:28:56.013Z,25.33
2018-08-27T09:31:22.412Z,25.39
2018-08-27T09:33:48.781Z,25.43
2018-08-27T09:36:15.120Z,25.46
2018-08-27T09:38:41.483Z,25.43
2018-08-27T09:41:07.819Z,25.43
2018-08-27T09:43:34.240Z,25.44
2018-08-27T09:46:00.678Z,25.43
2018-08-27T09:48:27.052Z,25.49
2018-08-27T09:50:53.411Z,25.46
2018-08-27T09:53:19.806Z,25.48
2018-08-27T09:55:46.201Z,25.54
2018-08-27T09:58:12.559Z,25.56
2018-08-27T10:00:38.896Z,25.53
2018-08-27T10:03:05.292Z,25.53
2018-08-27T10:05:31.636Z,25.52
2018-08-27T10:07:58.054Z,25.58
2018-08-27T10:10:24.450Z,25.61
2018-08-27T10:12:50.768Z,25.58
2018-08-27T10:15:17.147Z,25.61
2018-08-27T10:17:43.499Z,25.59
2018-08-27T10:20:09.828Z,25.65
2018-08-27T10:22:36.216Z,25.61
2018-08-27T10:25:02.905Z,25.62
2018-08-27T10:27:29.305Z,25.64
2018-08-27T10:29:57.145Z,25.62
2018-08-27T10:32:23.429Z,25.65
2018-08-27T10:34:49.764Z,25.68
2018-08-27T10:37:16.928Z,25.68
2018-08-27T10:39:43.321Z,25.66
2018-08-27T10:42:09.673Z,25.71
2018-08-27T10:44:36.004Z,25.66
2018-08-27T10:47:02.412Z,25.69
2018-08-27T10:49:28.857Z,25.68
2018-08-27T10:51:55.283Z,25.69
2018-08-27T10:54:21.662Z,25.65
2018-08-27T10:56:48.096Z,25.65
2018-08-27T10:59:14.499Z,25.69
2018-08-27T11:01:40.908Z,25.67
2018-08-27T11:04:07.268Z,25.67
2018-08-27T11:06:33.777Z,25.65
2018-08-27T11:09:00.177Z,25.67
2018-08-27T11:11:26.585Z,25.66
2018-08-27T11:13:54.465Z,25.65
2018-08-27T11:16:20.910Z,25.61
2018-08-27T11:18:47.274Z,25.61
2018-08-27T11:21:13.670Z,25.59
2018-08-27T11:23:40.033Z,25.59
2018-08-27T11:26:06.569Z,25.62
2018-08-27T11:28:32.870Z,25.61
2018-08-27T11:30:59.329Z,25.61
2018-08-27T11:33:25.720Z,25.57
2018-08-27T11:35:52.052Z,25.60
2018-08-27T11:38:18.407Z,25.61
2018-08-27T11:40:44.851Z,25.63
2018-08-27T11:43:11.191Z,25.59
2018-08-27T11:45:37.571Z,25.58
2018-08-27T11:48:03.923Z,25.56
2018-08-27T11:50:30.402Z,25.60
2018-08-27T11:52:56.749Z,25.57
2018-08-27T11:55:23.131Z,25.54
2018-08-27T11:57:49.489Z,25.58
2018-08-27T12:00:15.978Z,25.57
2018-08-27T12:02:42.522Z,25.58
2018-08-27T12:05:09.527Z,25.60
2018-08-27T12:07:35.860Z,25.64
2018-08-27T12:10:02.283Z,25.57
2018-08-27T12:12:28.636Z,25.61
2018-08-27T12:14:54.994Z,25.56
2018-08-27T12:17:21.393Z,25.57
2018-08-27T12:19:47.728Z,25.54
2018-08-27T12:22:14.164Z,25.54
2018-08-27T12:24:40.520Z,25.49
2018-08-27T12:27:06.915Z,25.50
2018-08-27T12:29:33.247Z,25.50
2018-08-27T12:31:59.656Z,25.48
2018-08-27T12:34:26.019Z,25.51
2018-08-27T12:36:52.514Z,25.49
2018-08-27T12:39:18.844Z,25.46
2018-08-27T12:41:45.217Z,25.49
2018-08-27T12:44:11.546Z,25.47
2018-08-27T12:46:37.904Z,25.52
2018-08-27T12:49:04.299Z,25.49
2018-08-27T12:51:30.748Z,25.43
2018-08-27T12:53:57.131Z,25.43
2018-08-27T12:56:23.466Z,25.43
2018-08-27T12:58:50.260Z,25.45
2018-08-27T13:01:16.523Z,25.44
2018-08-27T13:03:42.909Z,25.48
2018-08-27T13:06:09.516Z,25.44
2018-08-27T13:08:35.940Z,25.49
2018-08-27T13:11:02.313Z,25.44
2018-08-27T13:13:28.644Z,25.42
2018-08-27T13:15:55.079Z,25.39
2018-08-27T13:18:21.546Z,25.40
2018-08-27T13:20:47.897Z,25.37
2018-08-27T13:23:14.315Z,25.39
2018-08-27T13:25:40.876Z,25.35
2018-08-27T13:28:07.216Z,25.36
2018-08-27T13:30:33.797Z,25.33
2018-08-27T13:33:00.011Z,25.34
2018-08-27T13:35:26.403Z,25.31
2018-08-27T13:37:52.767Z,25.31
2018-08-27T13:40:19.272Z,25.30
2018-08-27T13:42:45.569Z,25.35
2018-08-27T13:45:12.511Z,25.34
2018-08-27T13:47:39.154Z,25.38
2018-08-27T13:50:05.690Z,25.34
2018-08-27T13:52:32.041Z,25.29
2018-08-27T13:54:59.783Z,25.30
2018-08-27T13:57:26.148Z,25.33
2018-08-27T13:59:53.525Z,25.30
2018-08-27T14:02:19.942Z,25.34
2018-08-27T14:04:50.555Z,25.31
2018-08-27T14:07:16.940Z,25.31
2018-08-27T14:09:43.377Z,25.30
2018-08-27T14:12:09.851Z,25.30
2018-08-27T14:14:36.234Z,25.28
2018-08-27T14:17:02.679Z,25.23
2018-08-27T14:19:29.152Z,25.30
2018-08-27T14:21:55.501Z,25.32
2018-08-27T14:24:21.893Z,25.32
2018-08-27T14:26:48.289Z,25.33
2018-08-27T14:29:14.836Z,25.36
2018-08-27T14:31:41.321Z,25.37
2018-08-27T14:34:07.692Z,25.37
2018-08-27T14:36:34.055Z,25.39
2018-08-27T14:39:00.526Z,25.38
2018-08-27T14:41:26.856Z,25.38
2018-08-27T14:43:53.947Z,25.39
2018-08-27T14:46:20.277Z,25.40
2018-08-27T14:48:46.709Z,25.39
2018-08-27T14:51:13.097Z,25.43
2018-08-27T14:53:39.472Z,25.39
2018-08-27T14:56:05.932Z,25.39
2018-08-27T14:58:32.198Z,25.40
2018-08-27T15:00:58.683Z,25.34
2018-08-27T15:03:25.134Z,25.38
2018-08-27T15:05:51.769Z,25.39
2018-08-27T15:08:18.670Z,25.36
2018-08-27T15:10:45.674Z,25.33
2018-08-27T15:13:12.185Z,25.37
2018-08-27T15:15:38.564Z,25.51
2018-08-27T15:18:05.016Z,25.42
2018-08-27T15:20:31.484Z,25.38
2018-08-27T15:22:57.883Z,25.35
2018-08-27T15:25:24.214Z,25.35
2018-08-27T15:27:50.604Z,25.38
2018-08-27T15:30:16.977Z,25.34
2018-08-27T15:32:43.344Z,25.30
2018-08-27T15:35:09.680Z,25.31
2018-08-27T15:37:36.019Z,25.32
2018-08-27T15:40:02.382Z,25.28
2018-08-27T15:42:28.718Z,25.28
2018-08-27T15:44:55.104Z,25.29
2018-08-27T15:47:21.529Z,25.28
2018-08-27T15:49:47.934Z,25.25
2018-08-27T15:52:14.263Z,25.25
2018-08-27T15:54:40.653Z,25.24
2018-08-27T15:57:07.030Z,25.24
2018-08-27T15:59:33.384Z,25.25
2018-08-27T16:01:59.721Z,25.27
2018-08-27T16:04:26.068Z,25.27
2018-08-27T16:06:52.407Z,25.25
2018-08-27T16:09:18.775Z,25.23
2018-08-27T16:11:45.130Z,25.21
2018-08-27T16:14:11.507Z,25.19
2018-08-27T16:16:37.909Z,25.14
2018-08-27T16:19:04.273Z,25.16
2018-08-27T16:21:30.665Z,25.13
2018-08-27T16:23:57.061Z,25.12
2018-08-27T16:26:23.438Z,25.14
2018-08-27T16:28:49.767Z,25.10
2018-08-27T16:31:16.128Z,25.12
2018-08-27T16:33:42.454Z,25.09
2018-08-27T16:36:08.861Z,25.08
2018-08-27T16:38:35.211Z,25.05
2018-08-27T16:41:01.584Z,25.05
2018-08-27T16:43:27.918Z,25.02
2018-08-27T16:45:54.283Z,25.02
2018-08-27T16:48:20.613Z,25.01
2018-08-27T16:50:46.948Z,24.98
2018-08-27T16:53:13.310Z,24.98
2018-08-27T16:55:39.668Z,24.95
2018-08-27T16:58:06.001Z,24.99
2018-08-27T17:00:32.335Z,24.93
2018-08-27T17:02:58.660Z,24.88
2018-08-27T17:05:24.994Z,24.90
2018-08-27T17:07:51.320Z,24.86
2018-08-27T17:10:17.706Z,24.90
2018-08-27T17:12:44.058Z,24.89
2018-08-27T17:15:10.416Z,24.89
2018-08-27T17:17:36.775Z,24.89
2018-08-27T17:20:03.139Z,24.91
2018-08-27T17:22:29.483Z,24.90
2018-08-27T17:24:55.844Z,24.90
2018-08-27T17:27:22.252Z,24.92
2018-08-27T17:29:48.600Z,24.90
2018-08-27T17:32:14.954Z,24.90
2018-08-27T17:34:41.309Z,24.90
2018-08-27T17:37:07.708Z,24.89
2018-08-27T17:39:34.038Z,24.89
2018-08-27T17:42:00.427Z,24.91
2018-08-27T17:44:26.819Z,24.90
2018-08-27T17:46:53.201Z,24.90
2018-08-27T17:49:19.581Z,24.89
2018-08-27T17:51:45.911Z,24.89
2018-08-27T17:54:12.244Z,24.91
2018-08-27T17:56:38.675Z,24.90
2018-08-27T17:59:05.036Z,24.89
2018-08-27T18:01:31.423Z,24.88
2018-08-27T18:03:57.843Z,24.88
2018-08-27T18:06:24.168Z,24.90
2018-08-27T18:08:50.503Z,24.88
2018-08-27T18:11:16.884Z,24.87
2018-08-27T18:13:43.215Z,24.90
2018-08-27T18:16:09.611Z,24.88
2018-08-27T18:18:35.942Z,24.87
2018-08-27T18:21:02.280Z,24.88
2018-08-27T18:23:28.630Z,24.87
2018-08-27T18:25:54.961Z,24.86
2018-08-27T18:28:21.300Z,24.85
2018-08-27T18:30:47.681Z,24.84
2018-08-27T18:33:14.127Z,24.85
2018-08-27T18:35:40.508Z,24.85
2018-08-27T18:38:06.857Z,24.83
2018-08-27T18:40:33.195Z,24.82
2018-08-27T18:42:59.573Z,24.79
2018-08-27T18:45:25.966Z,24.82
2018-08-27T18:47:52.259Z,24.80
2018-08-27T18:50:18.768Z,24.82
2018-08-27T18:52:45.120Z,24.77
2018-08-27T18:55:11.485Z,24.76
2018-08-27T18:57:37.873Z,24.75
2018-08-27T19:00:04.223Z,24.74
2018-08-27T19:02:30.607Z,24.72
2018-08-27T19:04:56.946Z,24.69
2018-08-27T19:07:23.280Z,24.62
2018-08-27T19:09:49.630Z,24.58
2018-08-27T19:12:15.974Z,24.55
2018-08-27T19:14:42.340Z,24.51
2018-08-27T19:17:08.697Z,24.48
2018-08-27T19:19:35.123Z,24.45
2018-08-27T19:22:01.591Z,24.43
2018-08-27T19:24:28.154Z,24.41
2018-08-27T19:26:54.475Z,24.36
2018-08-27T19:29:20.802Z,24.33
2018-08-27T19:31:47.136Z,24.32
2018-08-27T19:34:13.615Z,24.32
2018-08-27T19:36:40.059Z,24.32
2018-08-27T19:39:06.343Z,24.27
2018-08-27T19:41:32.744Z,24.28
2018-08-27T19:43:59.090Z,24.25
2018-08-27T19:46:25.519Z,24.25
2018-08-27T19:48:51.791Z,24.24
2018-08-27T19:51:18.189Z,24.23
2018-08-27T19:53:44.512Z,24.21
2018-08-27T19:56:10.914Z,24.23
2018-08-27T19:58:37.252Z,24.19
2018-08-27T20:01:03.681Z,24.18
2018-08-27T20:03:30.107Z,24.15
2018-08-27T20:05:56.460Z,24.14
2018-08-27T20:08:22.849Z,24.13
2018-08-27T20:10:49.174Z,24.10
2018-08-27T20:13:15.540Z,24.10
2018-08-27T20:15:41.879Z,24.09
2018-08-27T20:18:08.208Z,24.05
2018-08-27T20:20:34.561Z,24.05
2018-08-27T20:23:00.900Z,24.05
2018-08-27T20:25:27.232Z,24.04
2018-08-27T20:27:53.621Z,24.02
2018-08-27T20:30:19.994Z,24.00
2018-08-27T20:32:46.320Z,23.98
2018-08-27T20:35:12.824Z,23.96
2018-08-27T20:37:39.156Z,23.96
2018-08-27T20:40:05.658Z,23.92
2018-08-27T20:42:32.012Z,23.94
2018-08-27T20:44:58.367Z,23.95
2018-08-27T20:47:24.771Z,23.89
2018-08-27T20:49:51.185Z,23.86
2018-08-27T20:52:17.643Z,23.87
2018-08-27T20:54:43.976Z,23.87
2018-08-27T20:57:10.436Z,23.82
2018-08-27T20:59:36.717Z,23.79
2018-08-27T21:02:03.051Z,23.82
2018-08-27T21:04:29.443Z,23.81
2018-08-27T21:06:55.773Z,23.82
2018-08-27T21:09:22.103Z,23.81
2018-08-27T21:11:48.419Z,23.73
2018-08-27T21:14:14.757Z,23.68
2018-08-27T21:16:41.168Z,23.69
2018-08-27T21:19:07.515Z,23.72
2018-08-27T21:21:33.852Z,23.69
2018-08-27T21:24:00.220Z,23.68
2018-08-27T21:26:26.548Z,23.66
2018-08-27T21:28:52.873Z,23.67
2018-08-27T21:31:19.264Z,23.62
2018-08-27T21:33:45.566Z,23.59
2018-08-27T21:36:11.894Z,23.60
2018-08-27T21:38:38.268Z,23.57
2018-08-27T21:41:04.618Z,23.52
2018-08-27T21:43:30.951Z,23.52
2018-08-27T21:45:57.271Z,23.53
2018-08-27T21:48:23.626Z,23.52
2018-08-27T21:50:49.993Z,23.53
2018-08-27T21:53:16.487Z,23.49
2018-08-27T21:55:42.825Z,23.49
2018-08-27T21:58:09.282Z,23.46
2018-08-27T22:00:35.632Z,23.43
2018-08-27T22:03:01.976Z,23.45
2018-08-27T22:05:28.315Z,23.43
2018-08-27T22:07:54.649Z,23.39
2018-08-27T22:10:20.988Z,23.43
2018-08-27T22:12:47.311Z,23.42
2018-08-27T22:15:13.643Z,23.40
2018-08-27T22:17:40.037Z,23.39
2018-08-27T22:20:06.513Z,23.36
2018-08-27T22:22:32.845Z,23.35
2018-08-27T22:24:59.214Z,23.38
2018-08-27T22:27:25.607Z,23.36
2018-08-27T22:29:51.963Z,23.34
2018-08-27T22:32:18.295Z,23.29
2018-08-27T22:34:44.630Z,23.29
2018-08-27T22:37:10.966Z,23.30
2018-08-27T22:39:37.297Z,23.27
2018-08-27T22:42:03.640Z,23.30
2018-08-27T22:44:29.990Z,23.25
2018-08-27T22:46:56.371Z,23.26
2018-08-27T22:49:22.692Z,23.27
2018-08-27T22:51:49.057Z,23.22
2018-08-27T22:54:15.388Z,23.23
2018-08-27T22:56:41.748Z,23.20
2018-08-27T22:59:08.110Z,23.20
2018-08-27T23:01:34.483Z,23.18
2018-08-27T23:04:00.837Z,23.21
2018-08-27T23:06:27.305Z,23.14
2018-08-27T23:08:53.635Z,23.15
2018-08-27T23:11:19.966Z,23.14
2018-08-27T23:13:46.299Z,23.14
2018-08-27T23:16:12.627Z,23.12
2018-08-27T23:18:38.953Z,23.11
2018-08-27T23:21:05.295Z,23.11
2018-08-27T23:23:31.661Z,23.14
2018-08-27T23:25:57.989Z,23.08
2018-08-27T23:28:24.318Z,23.09
2018-08-27T23:30:50.669Z,23.08
2018-08-27T23:33:17.000Z,23.08
2018-08-27T23:35:43.376Z,23.11
2018-08-27T23:38:09.713Z,23.08
2018-08-27T23:40:36.065Z,23.03
2018-08-27T23:43:02.400Z,23.06
2018-08-27T23:45:28.778Z,23.02
2018-08-27T23:47:55.182Z,23.02
2018-08-27T23:50:21.499Z,23.01
2018-08-27T23:52:47.832Z,22.99
2018-08-27T23:55:14.192Z,23.02
2018-08-27T23:57:40.532Z,22.98
